sensor_id;sensor_type;location;lat;lon;timestamp;temperature;humidity
2024;DHT22;1016;48.770;9.154;2022-11-15T00:01:35;11.20;99.90
2024;DHT22;1016;48.770;9.154;2022-11-15T00:04:04;11.30;99.90
2024;DHT22;1016;48.770;9.154;2022-11-15T00:06:30;11.30;99.90
2024;DHT22;1016;48.770;9.154;2022-11-15T00:08:58;11.40;99.90
2024;DHT22;1016;48.770;9.154;2022-11-15T00:11:24;11.50;99.90
2024;DHT22;1016;48.770;9.154;2022-11-15T00:13:49;11.60;99.90
2024;DHT22;1016;48.770;9.154;2022-11-15T00:16:15;11.60;99.90
2024;DHT22;1016;48.770;9.154;2022-11-15T00:18:40;11.60;99.90
2024;DHT22;1016;48.770;9.154;2022-11-15T00:21:09;11.60;99.90
2024;DHT22;1016;48.770;9.154;2022-11-15T00:23:35;11.70;99.90
2024;DHT22;1016;48.770;9.154;2022-11-15T00:26:00;11.70;99.90
2024;DHT22;1016;48.770;9.154;2022-11-15T00:28:26;11.70;99.90
2024;DHT22;1016;48.770;9.154;2022-11-15T00:30:52;11.70;99.90
2024;DHT22;1016;48.770;9.154;2022-11-15T00:33:17;11.60;99.90
2024;DHT22;1016;48.770;9.154;2022-11-15T00:35:43;11.70;99.90
2024;DHT22;1016;48.770;9.154;2022-11-15T00:38:08;11.70;99.90
2024;DHT22;1016;48.770;9.154;2022-11-15T00:40:34;11.80;99.90
2024;DHT22;1016;48.770;9.154;2022-11-15T00:42:59;11.80;99.90
2024;DHT22;1016;48.770;9.154;2022-11-15T00:45:25;11.90;99.90
2024;DHT22;1016;48.770;9.154;2022-11-15T00:47:51;11.90;99.90
2024;DHT22;1016;48.770;9.154;2022-11-15T00:50:17;11.90;99.90
2024;DHT22;1016;48.770;9.154;2022-11-15T00:52:43;11.90;99.90
2024;DHT22;1016;48.770;9.154;2022-11-15T00:55:16;11.90;99.90
2024;DHT22;1016;48.770;9.154;2022-11-15T00:57:42;12.00;99.90
2024;DHT22;1016;48.770;9.154;2022-11-15T01:00:08;12.00;99.90
2024;DHT22;1016;48.770;9.154;2022-11-15T01:02:34;12.00;99.90
2024;DHT22;1016;48.770;9.154;2022-11-15T01:05:00;12.00;99.90
2024;DHT22;1016;48.770;9.154;2022-11-15T01:07:25;12.00;99.90
2024;DHT22;1016;48.770;9.154;2022-11-15T01:09:51;12.00;99.90
2024;DHT22;1016;48.770;9.154;2022-11-15T01:12:16;12.00;99.90
2024;DHT22;1016;48.770;9.154;2022-11-15T01:14:42;12.00;99.90
2024;DHT22;1016;48.770;9.154;2022-11-15T01:17:07;12.00;99.90
2024;DHT22;1016;48.770;9.154;2022-11-15T01:19:33;11.90;99.90
2024;DHT22;1016;48.770;9.154;2022-11-15T01:21:59;11.90;99.90
2024;DHT22;1016;48.770;9.154;2022-11-15T01:24:24;11.80;99.90
2024;DHT22;1016;48.770;9.154;2022-11-15T01:26:50;11.70;99.90
2024;DHT22;1016;48.770;9.154;2022-11-15T01:29:15;11.60;99.90
2024;DHT22;1016;48.770;9.154;2022-11-15T01:31:41;11.50;99.90
2024;DHT22;1016;48.770;9.154;2022-11-15T01:34:06;11.40;99.90
2024;DHT22;1016;48.770;9.154;2022-11-15T01:36:32;11.30;99.90
2024;DHT22;1016;48.770;9.154;2022-11-15T01:38:58;11.30;99.90
2024;DHT22;1016;48.770;9.154;2022-11-15T01:41:30;11.20;99.90
2024;DHT22;1016;48.770;9.154;2022-11-15T01:46:46;11.20;99.90
2024;DHT22;1016;48.770;9.154;2022-11-15T01:49:15;11.10;99.90
2024;DHT22;1016;48.770;9.154;2022-11-15T01:51:41;11.00;99.90
2024;DHT22;1016;48.770;9.154;2022-11-15T01:54:10;10.90;99.90
2024;DHT22;1016;48.770;9.154;2022-11-15T01:56:42;11.00;99.90
2024;DHT22;1016;48.770;9.154;2022-11-15T01:59:10;10.80;99.90
2024;DHT22;1016;48.770;9.154;2022-11-15T02:01:37;10.80;99.90
2024;DHT22;1016;48.770;9.154;2022-11-15T02:04:15;10.80;99.90
2024;DHT22;1016;48.770;9.154;2022-11-15T02:06:43;10.80;99.90
2024;DHT22;1016;48.770;9.154;2022-11-15T02:09:09;10.80;99.90
2024;DHT22;1016;48.770;9.154;2022-11-15T02:11:35;10.70;99.90
2024;DHT22;1016;48.770;9.154;2022-11-15T02:14:02;10.70;99.90
2024;DHT22;1016;48.770;9.154;2022-11-15T02:22:36;10.70;99.90
2024;DHT22;1016;48.770;9.154;2022-11-15T02:27:59;10.70;99.90
2024;DHT22;1016;48.770;9.154;2022-11-15T02:30:41;10.80;99.90
2024;DHT22;1016;48.770;9.154;2022-11-15T02:38:29;11.00;99.90
2024;DHT22;1016;48.770;9.154;2022-11-15T02:43:29;11.10;99.90
2024;DHT22;1016;48.770;9.154;2022-11-15T02:46:23;11.10;99.90
2024;DHT22;1016;48.770;9.154;2022-11-15T02:49:13;11.10;99.90
2024;DHT22;1016;48.770;9.154;2022-11-15T02:51:40;11.10;99.90
2024;DHT22;1016;48.770;9.154;2022-11-15T02:54:06;11.20;99.90
2024;DHT22;1016;48.770;9.154;2022-11-15T02:56:32;11.20;99.90
2024;DHT22;1016;48.770;9.154;2022-11-15T02:59:30;11.20;99.90
2024;DHT22;1016;48.770;9.154;2022-11-15T03:02:29;11.20;99.90
2024;DHT22;1016;48.770;9.154;2022-11-15T03:08:00;11.30;99.90
2024;DHT22;1016;48.770;9.154;2022-11-15T03:10:49;11.30;99.90
2024;DHT22;1016;48.770;9.154;2022-11-15T03:13:27;11.30;99.90
2024;DHT22;1016;48.770;9.154;2022-11-15T03:19:18;11.40;99.90
2024;DHT22;1016;48.770;9.154;2022-11-15T03:21:46;11.40;99.90
2024;DHT22;1016;48.770;9.154;2022-11-15T03:24:14;11.40;99.90
2024;DHT22;1016;48.770;9.154;2022-11-15T03:26:41;11.50;99.90
2024;DHT22;1016;48.770;9.154;2022-11-15T03:29:16;11.50;99.90
2024;DHT22;1016;48.770;9.154;2022-11-15T03:31:45;11.50;99.90
2024;DHT22;1016;48.770;9.154;2022-11-15T03:34:26;11.50;99.90
2024;DHT22;1016;48.770;9.154;2022-11-15T03:36:53;11.50;99.90
2024;DHT22;1016;48.770;9.154;2022-11-15T03:39:19;11.60;99.90
2024;DHT22;1016;48.770;9.154;2022-11-15T03:42:28;11.60;99.90
2024;DHT22;1016;48.770;9.154;2022-11-15T03:44:59;11.60;99.90
2024;DHT22;1016;48.770;9.154;2022-11-15T03:47:32;11.60;99.90
2024;DHT22;1016;48.770;9.154;2022-11-15T03:50:13;11.60;99.90
2024;DHT22;1016;48.770;9.154;2022-11-15T03:52:41;11.70;99.90
2024;DHT22;1016;48.770;9.154;2022-11-15T03:55:10;11.70;99.90
2024;DHT22;1016;48.770;9.154;2022-11-15T03:57:36;11.70;99.90
2024;DHT22;1016;48.770;9.154;2022-11-15T04:00:03;11.70;99.90
2024;DHT22;1016;48.770;9.154;2022-11-15T04:02:29;11.70;99.90
2024;DHT22;1016;48.770;9.154;2022-11-15T04:04:54;11.60;99.90
2024;DHT22;1016;48.770;9.154;2022-11-15T04:07:20;11.60;99.90
2024;DHT22;1016;48.770;9.154;2022-11-15T04:09:45;11.50;99.90
2024;DHT22;1016;48.770;9.154;2022-11-15T04:12:35;11.70;99.90
2024;DHT22;1016;48.770;9.154;2022-11-15T04:20:05;11.50;99.90
2024;DHT22;1016;48.770;9.154;2022-11-15T04:22:52;11.40;99.90
2024;DHT22;1016;48.770;9.154;2022-11-15T04:25:36;11.50;99.90
2024;DHT22;1016;48.770;9.154;2022-11-15T04:28:02;11.50;99.90
2024;DHT22;1016;48.770;9.154;2022-11-15T04:30:27;11.50;99.90
2024;DHT22;1016;48.770;9.154;2022-11-15T04:32:53;11.50;99.90
2024;DHT22;1016;48.770;9.154;2022-11-15T04:35:18;11.60;99.90
2024;DHT22;1016;48.770;9.154;2022-11-15T04:37:44;11.60;99.90
2024;DHT22;1016;48.770;9.154;2022-11-15T04:40:09;11.60;99.90
2024;DHT22;1016;48.770;9.154;2022-11-15T04:42:35;11.60;99.90
2024;DHT22;1016;48.770;9.154;2022-11-15T04:45:00;11.60;99.90
2024;DHT22;1016;48.770;9.154;2022-11-15T04:47:26;11.60;99.90
2024;DHT22;1016;48.770;9.154;2022-11-15T04:49:53;11.60;99.90
2024;DHT22;1016;48.770;9.154;2022-11-15T04:52:18;11.50;99.90
2024;DHT22;1016;48.770;9.154;2022-11-15T04:54:44;11.50;99.90
2024;DHT22;1016;48.770;9.154;2022-11-15T04:57:10;11.40;99.90
2024;DHT22;1016;48.770;9.154;2022-11-15T04:59:35;11.30;99.90
2024;DHT22;1016;48.770;9.154;2022-11-15T05:02:00;11.20;99.90
2024;DHT22;1016;48.770;9.154;2022-11-15T05:04:26;11.20;99.90
2024;DHT22;1016;48.770;9.154;2022-11-15T05:06:52;11.20;99.90
2024;DHT22;1016;48.770;9.154;2022-11-15T05:09:18;11.10;99.90
2024;DHT22;1016;48.770;9.154;2022-11-15T05:11:44;11.20;99.90
2024;DHT22;1016;48.770;9.154;2022-11-15T05:14:10;11.00;99.90
2024;DHT22;1016;48.770;9.154;2022-11-15T05:16:36;11.00;99.90
2024;DHT22;1016;48.770;9.154;2022-11-15T05:19:02;10.90;99.90
2024;DHT22;1016;48.770;9.154;2022-11-15T05:21:28;10.90;99.90
2024;DHT22;1016;48.770;9.154;2022-11-15T05:23:53;10.90;99.90
2024;DHT22;1016;48.770;9.154;2022-11-15T05:26:19;10.90;99.90
2024;DHT22;1016;48.770;9.154;2022-11-15T05:28:45;10.90;99.90
2024;DHT22;1016;48.770;9.154;2022-11-15T05:31:12;10.80;99.90
2024;DHT22;1016;48.770;9.154;2022-11-15T05:33:39;10.80;99.90
2024;DHT22;1016;48.770;9.154;2022-11-15T05:38:53;10.80;99.90
2024;DHT22;1016;48.770;9.154;2022-11-15T05:41:22;10.80;99.90
2024;DHT22;1016;48.770;9.154;2022-11-15T05:43:52;10.80;99.90
2024;DHT22;1016;48.770;9.154;2022-11-15T05:46:19;10.80;99.90
2024;DHT22;1016;48.770;9.154;2022-11-15T05:48:47;10.80;99.90
2024;DHT22;1016;48.770;9.154;2022-11-15T05:51:15;10.90;99.90
2024;DHT22;1016;48.770;9.154;2022-11-15T05:53:42;10.80;99.90
2024;DHT22;1016;48.770;9.154;2022-11-15T05:56:09;10.80;99.90
2024;DHT22;1016;48.770;9.154;2022-11-15T05:58:35;10.80;99.90
2024;DHT22;1016;48.770;9.154;2022-11-15T06:01:01;10.90;99.90
2024;DHT22;1016;48.770;9.154;2022-11-15T06:03:27;10.90;99.90
2024;DHT22;1016;48.770;9.154;2022-11-15T06:05:52;10.80;99.90
2024;DHT22;1016;48.770;9.154;2022-11-15T06:08:18;10.80;99.90
2024;DHT22;1016;48.770;9.154;2022-11-15T06:10:43;10.80;99.90
2024;DHT22;1016;48.770;9.154;2022-11-15T06:13:09;10.80;99.90
2024;DHT22;1016;48.770;9.154;2022-11-15T06:15:34;10.90;99.90
2024;DHT22;1016;48.770;9.154;2022-11-15T06:18:00;10.90;99.90
2024;DHT22;1016;48.770;9.154;2022-11-15T06:20:27;10.90;99.90
2024;DHT22;1016;48.770;9.154;2022-11-15T06:23:01;10.90;99.90
2024;DHT22;1016;48.770;9.154;2022-11-15T06:25:28;11.00;99.90
2024;DHT22;1016;48.770;9.154;2022-11-15T06:27:54;10.80;99.90
2024;DHT22;1016;48.770;9.154;2022-11-15T06:30:21;10.80;99.90
2024;DHT22;1016;48.770;9.154;2022-11-15T06:32:47;10.80;99.90
2024;DHT22;1016;48.770;9.154;2022-11-15T06:35:13;10.80;99.90
2024;DHT22;1016;48.770;9.154;2022-11-15T06:37:40;10.80;99.90
2024;DHT22;1016;48.770;9.154;2022-11-15T06:40:06;10.70;99.90
2024;DHT22;1016;48.770;9.154;2022-11-15T06:42:32;10.70;99.90
2024;DHT22;1016;48.770;9.154;2022-11-15T06:44:58;10.70;99.90
2024;DHT22;1016;48.770;9.154;2022-11-15T06:47:23;10.70;99.90
2024;DHT22;1016;48.770;9.154;2022-11-15T06:49:49;10.60;99.90
2024;DHT22;1016;48.770;9.154;2022-11-15T06:52:14;10.70;99.90
2024;DHT22;1016;48.770;9.154;2022-11-15T06:54:40;10.60;99.90
2024;DHT22;1016;48.770;9.154;2022-11-15T06:57:05;10.70;99.90
2024;DHT22;1016;48.770;9.154;2022-11-15T06:59:31;10.80;99.90
2024;DHT22;1016;48.770;9.154;2022-11-15T07:01:56;10.90;99.90
2024;DHT22;1016;48.770;9.154;2022-11-15T07:04:22;10.90;99.90
2024;DHT22;1016;48.770;9.154;2022-11-15T07:06:47;11.10;99.90
2024;DHT22;1016;48.770;9.154;2022-11-15T07:09:13;11.10;99.90
2024;DHT22;1016;48.770;9.154;2022-11-15T07:11:39;11.10;99.90
2024;DHT22;1016;48.770;9.154;2022-11-15T07:14:05;11.20;99.90
2024;DHT22;1016;48.770;9.154;2022-11-15T07:16:30;11.30;99.90
2024;DHT22;1016;48.770;9.154;2022-11-15T07:18:56;11.50;99.90
2024;DHT22;1016;48.770;9.154;2022-11-15T07:21:21;11.30;99.90
2024;DHT22;1016;48.770;9.154;2022-11-15T07:23:47;11.20;99.90
2024;DHT22;1016;48.770;9.154;2022-11-15T07:26:12;11.20;99.90
2024;DHT22;1016;48.770;9.154;2022-11-15T07:28:38;11.20;99.90
2024;DHT22;1016;48.770;9.154;2022-11-15T07:31:05;11.20;99.90
2024;DHT22;1016;48.770;9.154;2022-11-15T07:33:31;11.20;99.90
2024;DHT22;1016;48.770;9.154;2022-11-15T07:36:02;11.20;99.90
2024;DHT22;1016;48.770;9.154;2022-11-15T07:38:28;11.30;99.90
2024;DHT22;1016;48.770;9.154;2022-11-15T07:40:58;11.40;99.90
2024;DHT22;1016;48.770;9.154;2022-11-15T07:43:25;11.50;99.90
2024;DHT22;1016;48.770;9.154;2022-11-15T07:45:51;11.60;99.90
2024;DHT22;1016;48.770;9.154;2022-11-15T07:48:16;11.60;99.90
2024;DHT22;1016;48.770;9.154;2022-11-15T07:50:42;11.70;99.90
2024;DHT22;1016;48.770;9.154;2022-11-15T07:53:09;11.80;99.90
2024;DHT22;1016;48.770;9.154;2022-11-15T07:55:34;11.80;99.90
2024;DHT22;1016;48.770;9.154;2022-11-15T07:58:04;11.80;99.90
2024;DHT22;1016;48.770;9.154;2022-11-15T08:00:31;11.90;99.90
2024;DHT22;1016;48.770;9.154;2022-11-15T08:05:28;12.00;99.90
2024;DHT22;1016;48.770;9.154;2022-11-15T08:07:56;12.10;99.90
2024;DHT22;1016;48.770;9.154;2022-11-15T08:10:22;12.10;99.90
2024;DHT22;1016;48.770;9.154;2022-11-15T08:12:48;12.10;99.90
2024;DHT22;1016;48.770;9.154;2022-11-15T08:15:13;12.20;99.90
2024;DHT22;1016;48.770;9.154;2022-11-15T08:17:39;12.20;99.90
2024;DHT22;1016;48.770;9.154;2022-11-15T08:20:05;12.30;99.90
2024;DHT22;1016;48.770;9.154;2022-11-15T08:22:30;12.30;99.90
2024;DHT22;1016;48.770;9.154;2022-11-15T08:24:56;12.30;99.90
2024;DHT22;1016;48.770;9.154;2022-11-15T08:27:21;12.30;99.90
2024;DHT22;1016;48.770;9.154;2022-11-15T08:29:48;12.40;99.90
2024;DHT22;1016;48.770;9.154;2022-11-15T08:32:15;12.40;99.90
2024;DHT22;1016;48.770;9.154;2022-11-15T08:34:40;12.50;99.90
2024;DHT22;1016;48.770;9.154;2022-11-15T08:37:06;12.50;99.90
2024;DHT22;1016;48.770;9.154;2022-11-15T08:39:32;12.50;99.90
2024;DHT22;1016;48.770;9.154;2022-11-15T08:41:58;12.50;99.90
2024;DHT22;1016;48.770;9.154;2022-11-15T08:44:24;12.50;99.90
2024;DHT22;1016;48.770;9.154;2022-11-15T08:46:50;12.50;99.90
2024;DHT22;1016;48.770;9.154;2022-11-15T08:49:16;12.60;99.90
2024;DHT22;1016;48.770;9.154;2022-11-15T08:51:42;12.60;99.90
2024;DHT22;1016;48.770;9.154;2022-11-15T08:54:07;12.60;99.90
2024;DHT22;1016;48.770;9.154;2022-11-15T08:56:33;12.70;99.90
2024;DHT22;1016;48.770;9.154;2022-11-15T08:58:59;12.80;99.90
2024;DHT22;1016;48.770;9.154;2022-11-15T09:01:24;12.80;99.90
2024;DHT22;1016;48.770;9.154;2022-11-15T09:03:50;12.90;99.90
2024;DHT22;1016;48.770;9.154;2022-11-15T09:06:16;12.90;99.90
2024;DHT22;1016;48.770;9.154;2022-11-15T09:08:41;13.00;99.90
2024;DHT22;1016;48.770;9.154;2022-11-15T09:11:09;13.00;99.90
2024;DHT22;1016;48.770;9.154;2022-11-15T09:13:35;13.10;99.90
2024;DHT22;1016;48.770;9.154;2022-11-15T09:16:03;13.10;99.90
2024;DHT22;1016;48.770;9.154;2022-11-15T09:18:29;13.20;99.90
2024;DHT22;1016;48.770;9.154;2022-11-15T09:20:58;13.20;99.90
2024;DHT22;1016;48.770;9.154;2022-11-15T09:23:25;13.30;99.90
2024;DHT22;1016;48.770;9.154;2022-11-15T09:25:51;13.40;99.90
2024;DHT22;1016;48.770;9.154;2022-11-15T09:28:17;13.40;99.90
2024;DHT22;1016;48.770;9.154;2022-11-15T09:30:42;13.40;99.90
2024;DHT22;1016;48.770;9.154;2022-11-15T09:33:09;13.50;99.90
2024;DHT22;1016;48.770;9.154;2022-11-15T09:35:35;13.60;99.90
2024;DHT22;1016;48.770;9.154;2022-11-15T09:38:01;13.50;99.90
2024;DHT22;1016;48.770;9.154;2022-11-15T09:40:27;13.60;99.90
2024;DHT22;1016;48.770;9.154;2022-11-15T09:43:04;13.60;99.90
2024;DHT22;1016;48.770;9.154;2022-11-15T09:45:50;13.70;99.90
2024;DHT22;1016;48.770;9.154;2022-11-15T09:51:04;13.90;99.90
2024;DHT22;1016;48.770;9.154;2022-11-15T09:53:38;14.00;99.90
2024;DHT22;1016;48.770;9.154;2022-11-15T09:56:35;14.10;99.90
2024;DHT22;1016;48.770;9.154;2022-11-15T09:59:15;14.20;99.90
2024;DHT22;1016;48.770;9.154;2022-11-15T10:01:59;14.40;99.90
2024;DHT22;1016;48.770;9.154;2022-11-15T10:04:29;14.30;99.90
2024;DHT22;1016;48.770;9.154;2022-11-15T10:07:24;14.30;99.90
2024;DHT22;1016;48.770;9.154;2022-11-15T10:09:53;14.30;99.90
2024;DHT22;1016;48.770;9.154;2022-11-15T10:12:22;14.30;99.90
2024;DHT22;1016;48.770;9.154;2022-11-15T10:14:49;14.30;99.90
2024;DHT22;1016;48.770;9.154;2022-11-15T10:17:54;14.30;99.90
2024;DHT22;1016;48.770;9.154;2022-11-15T10:20:26;14.40;99.90
2024;DHT22;1016;48.770;9.154;2022-11-15T10:22:54;14.40;99.90
2024;DHT22;1016;48.770;9.154;2022-11-15T10:25:27;14.30;99.90
2024;DHT22;1016;48.770;9.154;2022-11-15T10:28:01;14.30;99.90
2024;DHT22;1016;48.770;9.154;2022-11-15T10:30:35;14.40;99.90
2024;DHT22;1016;48.770;9.154;2022-11-15T10:36:22;14.50;99.90
2024;DHT22;1016;48.770;9.154;2022-11-15T10:41:29;14.40;99.90
2024;DHT22;1016;48.770;9.154;2022-11-15T10:46:48;14.40;99.90
2024;DHT22;1016;48.770;9.154;2022-11-15T10:49:25;14.50;99.90
2024;DHT22;1016;48.770;9.154;2022-11-15T10:57:13;14.50;99.90
2024;DHT22;1016;48.770;9.154;2022-11-15T10:59:44;14.40;99.90
2024;DHT22;1016;48.770;9.154;2022-11-15T11:02:37;14.40;99.90
2024;DHT22;1016;48.770;9.154;2022-11-15T11:05:05;14.40;99.90
2024;DHT22;1016;48.770;9.154;2022-11-15T11:07:33;14.40;99.90
2024;DHT22;1016;48.770;9.154;2022-11-15T11:10:21;14.50;99.90
2024;DHT22;1016;48.770;9.154;2022-11-15T11:12:47;14.40;99.90
2024;DHT22;1016;48.770;9.154;2022-11-15T11:15:14;14.40;99.90
2024;DHT22;1016;48.770;9.154;2022-11-15T11:18:12;14.40;99.90
2024;DHT22;1016;48.770;9.154;2022-11-15T11:20:45;14.40;99.90
2024;DHT22;1016;48.770;9.154;2022-11-15T11:29:33;14.40;99.90
2024;DHT22;1016;48.770;9.154;2022-11-15T11:32:42;14.40;99.90
2024;DHT22;1016;48.770;9.154;2022-11-15T11:37:52;14.50;99.90
2024;DHT22;1016;48.770;9.154;2022-11-15T11:40:57;14.50;99.90
2024;DHT22;1016;48.770;9.154;2022-11-15T11:49:10;14.60;99.90
2024;DHT22;1016;48.770;9.154;2022-11-15T11:51:50;14.70;99.90
2024;DHT22;1016;48.770;9.154;2022-11-15T11:54:37;14.80;99.90
2024;DHT22;1016;48.770;9.154;2022-11-15T11:57:12;14.80;99.90
2024;DHT22;1016;48.770;9.154;2022-11-15T11:59:57;14.80;99.90
2024;DHT22;1016;48.770;9.154;2022-11-15T12:02:38;14.80;99.90
2024;DHT22;1016;48.770;9.154;2022-11-15T12:05:11;14.90;99.90
2024;DHT22;1016;48.770;9.154;2022-11-15T12:07:39;14.90;99.90
2024;DHT22;1016;48.770;9.154;2022-11-15T12:10:23;15.00;99.90
2024;DHT22;1016;48.770;9.154;2022-11-15T12:13:08;15.00;99.90
2024;DHT22;1016;48.770;9.154;2022-11-15T12:15:50;15.10;99.90
2024;DHT22;1016;48.770;9.154;2022-11-15T12:18:17;15.10;99.90
2024;DHT22;1016;48.770;9.154;2022-11-15T12:23:52;15.10;99.90
2024;DHT22;1016;48.770;9.154;2022-11-15T12:26:30;15.10;99.90
2024;DHT22;1016;48.770;9.154;2022-11-15T12:29:01;15.10;99.90
2024;DHT22;1016;48.770;9.154;2022-11-15T12:34:02;15.00;99.90
2024;DHT22;1016;48.770;9.154;2022-11-15T12:36:38;15.00;99.90
2024;DHT22;1016;48.770;9.154;2022-11-15T12:39:10;15.00;99.90
2024;DHT22;1016;48.770;9.154;2022-11-15T12:41:39;15.00;99.90
2024;DHT22;1016;48.770;9.154;2022-11-15T12:44:22;15.00;99.90
2024;DHT22;1016;48.770;9.154;2022-11-15T13:02:42;15.10;99.90
2024;DHT22;1016;48.770;9.154;2022-11-15T13:07:59;15.00;99.90
2024;DHT22;1016;48.770;9.154;2022-11-15T13:10:33;15.00;99.90
2024;DHT22;1016;48.770;9.154;2022-11-15T13:17:58;15.10;99.90
2024;DHT22;1016;48.770;9.154;2022-11-15T13:20:30;15.20;99.90
2024;DHT22;1016;48.770;9.154;2022-11-15T13:23:09;15.20;99.90
2024;DHT22;1016;48.770;9.154;2022-11-15T13:30:36;15.10;99.90
2024;DHT22;1016;48.770;9.154;2022-11-15T13:33:14;15.10;99.90
2024;DHT22;1016;48.770;9.154;2022-11-15T13:35:41;15.10;99.90
2024;DHT22;1016;48.770;9.154;2022-11-15T13:38:39;15.10;99.90
2024;DHT22;1016;48.770;9.154;2022-11-15T13:41:24;15.20;99.90
2024;DHT22;1016;48.770;9.154;2022-11-15T13:43:52;15.20;99.90
2024;DHT22;1016;48.770;9.154;2022-11-15T13:49:13;15.20;99.90
2024;DHT22;1016;48.770;9.154;2022-11-15T13:51:47;15.20;99.90
2024;DHT22;1016;48.770;9.154;2022-11-15T13:54:24;15.20;99.90
2024;DHT22;1016;48.770;9.154;2022-11-15T13:57:01;15.20;99.90
2024;DHT22;1016;48.770;9.154;2022-11-15T13:59:36;15.20;99.90
2024;DHT22;1016;48.770;9.154;2022-11-15T14:02:20;15.10;99.90
2024;DHT22;1016;48.770;9.154;2022-11-15T14:04:51;15.10;99.90
2024;DHT22;1016;48.770;9.154;2022-11-15T14:07:24;15.00;99.90
2024;DHT22;1016;48.770;9.154;2022-11-15T14:09:51;14.90;99.90
2024;DHT22;1016;48.770;9.154;2022-11-15T14:14:54;14.90;99.90
2024;DHT22;1016;48.770;9.154;2022-11-15T14:19:53;14.80;99.90
2024;DHT22;1016;48.770;9.154;2022-11-15T14:22:22;14.70;99.90
2024;DHT22;1016;48.770;9.154;2022-11-15T14:27:41;14.70;99.90
2024;DHT22;1016;48.770;9.154;2022-11-15T14:30:14;14.70;99.90
2024;DHT22;1016;48.770;9.154;2022-11-15T14:32:45;14.60;99.90
2024;DHT22;1016;48.770;9.154;2022-11-15T14:35:17;14.60;99.90
2024;DHT22;1016;48.770;9.154;2022-11-15T14:37:43;14.50;99.90
2024;DHT22;1016;48.770;9.154;2022-11-15T14:40:14;14.50;99.90
2024;DHT22;1016;48.770;9.154;2022-11-15T14:42:39;14.40;99.90
2024;DHT22;1016;48.770;9.154;2022-11-15T14:45:12;14.40;99.90
2024;DHT22;1016;48.770;9.154;2022-11-15T14:47:38;14.40;99.90
2024;DHT22;1016;48.770;9.154;2022-11-15T14:50:04;14.40;99.90
2024;DHT22;1016;48.770;9.154;2022-11-15T14:52:31;14.30;99.90
2024;DHT22;1016;48.770;9.154;2022-11-15T14:55:02;14.30;99.90
2024;DHT22;1016;48.770;9.154;2022-11-15T14:57:29;14.30;99.90
2024;DHT22;1016;48.770;9.154;2022-11-15T14:59:55;14.30;99.90
2024;DHT22;1016;48.770;9.154;2022-11-15T15:02:22;14.30;99.90
2024;DHT22;1016;48.770;9.154;2022-11-15T15:04:49;14.30;99.90
2024;DHT22;1016;48.770;9.154;2022-11-15T15:07:15;14.20;99.90
2024;DHT22;1016;48.770;9.154;2022-11-15T15:09:41;14.20;99.90
2024;DHT22;1016;48.770;9.154;2022-11-15T15:12:18;14.20;99.90
2024;DHT22;1016;48.770;9.154;2022-11-15T15:14:45;14.20;99.90
2024;DHT22;1016;48.770;9.154;2022-11-15T15:17:11;14.20;99.90
2024;DHT22;1016;48.770;9.154;2022-11-15T15:19:37;14.10;99.90
2024;DHT22;1016;48.770;9.154;2022-11-15T15:22:02;14.10;99.90
2024;DHT22;1016;48.770;9.154;2022-11-15T15:24:28;14.20;99.90
2024;DHT22;1016;48.770;9.154;2022-11-15T15:26:53;14.20;99.90
2024;DHT22;1016;48.770;9.154;2022-11-15T15:29:19;14.10;99.90
2024;DHT22;1016;48.770;9.154;2022-11-15T15:31:44;14.20;99.90
2024;DHT22;1016;48.770;9.154;2022-11-15T15:34:10;14.20;99.90
2024;DHT22;1016;48.770;9.154;2022-11-15T15:36:35;14.20;99.90
2024;DHT22;1016;48.770;9.154;2022-11-15T15:39:00;14.10;99.90
2024;DHT22;1016;48.770;9.154;2022-11-15T15:41:26;14.20;99.90
2024;DHT22;1016;48.770;9.154;2022-11-15T15:43:51;14.20;99.90
2024;DHT22;1016;48.770;9.154;2022-11-15T15:46:18;14.10;99.90
2024;DHT22;1016;48.770;9.154;2022-11-15T15:48:44;14.10;99.90
2024;DHT22;1016;48.770;9.154;2022-11-15T15:51:10;14.00;99.90
2024;DHT22;1016;48.770;9.154;2022-11-15T15:53:37;14.00;99.90
2024;DHT22;1016;48.770;9.154;2022-11-15T15:56:03;14.00;99.90
2024;DHT22;1016;48.770;9.154;2022-11-15T15:58:29;13.90;99.90
2024;DHT22;1016;48.770;9.154;2022-11-15T16:00:55;13.90;99.90
2024;DHT22;1016;48.770;9.154;2022-11-15T16:03:20;14.00;99.90
2024;DHT22;1016;48.770;9.154;2022-11-15T16:05:46;14.00;99.90
2024;DHT22;1016;48.770;9.154;2022-11-15T16:08:22;14.00;99.90
2024;DHT22;1016;48.770;9.154;2022-11-15T16:10:48;14.00;99.90
2024;DHT22;1016;48.770;9.154;2022-11-15T16:13:14;14.00;99.90
2024;DHT22;1016;48.770;9.154;2022-11-15T16:15:40;14.10;99.90
2024;DHT22;1016;48.770;9.154;2022-11-15T16:18:08;14.10;99.90
2024;DHT22;1016;48.770;9.154;2022-11-15T16:20:42;14.10;99.90
2024;DHT22;1016;48.770;9.154;2022-11-15T16:23:10;14.00;99.90
2024;DHT22;1016;48.770;9.154;2022-11-15T16:25:47;14.00;99.90
2024;DHT22;1016;48.770;9.154;2022-11-15T16:28:19;14.00;99.90
2024;DHT22;1016;48.770;9.154;2022-11-15T16:30:44;13.90;99.90
2024;DHT22;1016;48.770;9.154;2022-11-15T16:33:10;13.90;99.90
2024;DHT22;1016;48.770;9.154;2022-11-15T16:35:36;13.90;99.90
2024;DHT22;1016;48.770;9.154;2022-11-15T16:38:01;13.90;99.90
2024;DHT22;1016;48.770;9.154;2022-11-15T16:40:29;14.00;99.90
2024;DHT22;1016;48.770;9.154;2022-11-15T16:42:58;14.00;99.90
2024;DHT22;1016;48.770;9.154;2022-11-15T16:45:25;14.00;99.90
2024;DHT22;1016;48.770;9.154;2022-11-15T16:47:50;13.90;99.90
2024;DHT22;1016;48.770;9.154;2022-11-15T16:50:23;13.90;99.90
2024;DHT22;1016;48.770;9.154;2022-11-15T16:52:57;13.90;99.90
2024;DHT22;1016;48.770;9.154;2022-11-15T16:55:26;13.80;99.90
2024;DHT22;1016;48.770;9.154;2022-11-15T16:57:52;13.80;99.90
2024;DHT22;1016;48.770;9.154;2022-11-15T17:00:20;13.70;99.90
2024;DHT22;1016;48.770;9.154;2022-11-15T17:02:47;13.70;99.90
2024;DHT22;1016;48.770;9.154;2022-11-15T17:05:15;13.70;99.90
2024;DHT22;1016;48.770;9.154;2022-11-15T17:07:41;13.70;99.90
2024;DHT22;1016;48.770;9.154;2022-11-15T17:10:09;13.70;99.90
2024;DHT22;1016;48.770;9.154;2022-11-15T17:12:35;13.60;99.90
2024;DHT22;1016;48.770;9.154;2022-11-15T17:15:02;13.60;99.90
2024;DHT22;1016;48.770;9.154;2022-11-15T17:17:29;13.60;99.90
2024;DHT22;1016;48.770;9.154;2022-11-15T17:19:54;13.60;99.90
2024;DHT22;1016;48.770;9.154;2022-11-15T17:22:20;13.50;99.90
2024;DHT22;1016;48.770;9.154;2022-11-15T17:24:46;13.60;99.90
2024;DHT22;1016;48.770;9.154;2022-11-15T17:27:11;13.50;99.90
2024;DHT22;1016;48.770;9.154;2022-11-15T17:29:37;13.50;99.90
2024;DHT22;1016;48.770;9.154;2022-11-15T17:32:02;13.50;99.90
2024;DHT22;1016;48.770;9.154;2022-11-15T17:34:28;13.50;99.90
2024;DHT22;1016;48.770;9.154;2022-11-15T17:36:53;13.60;99.90
2024;DHT22;1016;48.770;9.154;2022-11-15T17:39:19;13.70;99.90
2024;DHT22;1016;48.770;9.154;2022-11-15T17:41:45;13.70;99.90
2024;DHT22;1016;48.770;9.154;2022-11-15T17:44:11;13.70;99.90
2024;DHT22;1016;48.770;9.154;2022-11-15T17:46:37;13.80;99.90
2024;DHT22;1016;48.770;9.154;2022-11-15T17:49:02;13.70;99.90
2024;DHT22;1016;48.770;9.154;2022-11-15T17:51:28;13.70;99.90
2024;DHT22;1016;48.770;9.154;2022-11-15T17:53:54;13.60;99.90
2024;DHT22;1016;48.770;9.154;2022-11-15T17:56:22;13.70;99.90
2024;DHT22;1016;48.770;9.154;2022-11-15T17:58:50;13.70;99.90
2024;DHT22;1016;48.770;9.154;2022-11-15T18:01:19;13.70;99.90
2024;DHT22;1016;48.770;9.154;2022-11-15T18:03:45;13.70;99.90
2024;DHT22;1016;48.770;9.154;2022-11-15T18:06:11;13.80;99.90
2024;DHT22;1016;48.770;9.154;2022-11-15T18:08:41;13.80;99.90